D/T METAR WX W/DIR W/SPE G/SPE TEMP DEWP
22/01/20 06:50 EGPO 220650Z 24009KT 4500 -DZ BR BKN004 09/09 Q1034 -DZ BR WSW (240°) 10.4mph 9°C 9°C
22/01/20 06:20 EGPO 220620Z 23008KT 8000 -DZ BKN004 09/09 Q1034 -DZ SW (230°) 9.2mph 9°C 9°C
22/01/20 05:50 EGPO 220550Z AUTO 22007KT 9999 BKN005/// BKN025/// 09/09 Q1034 SW (220°) 8.1mph 9°C 9°C
22/01/20 05:20 EGPO 220520Z AUTO 24008KT 9999 BKN005/// BKN011/// BKN023/// 10/09 Q1034 WSW (240°) 9.2mph 10°C 9°C
22/01/20 04:50 EGPO 220450Z AUTO 23008KT 9999 FEW010/// BKN025/// OVC032/// 10/09 Q1034 SW (230°) 9.2mph 10°C 9°C
22/01/20 04:20 EGPO 220420Z AUTO 24007KT 4100 -DZ BKN005/// BKN018/// OVC037/// 10/09 Q1034 -DZ WSW (240°) 8.1mph 10°C 9°C
22/01/20 03:50 EGPO 220350Z AUTO 23006KT 9999 BKN004/// OVC008/// 10/09 Q1034 SW (230°) 6.9mph 10°C 9°C
22/01/20 02:50 EGPO 220250Z AUTO VRB03KT 9999 SCT014/// SCT034/// 09/09 Q1034 N (0°) 3.5mph 9°C 9°C
22/01/20 02:20 EGPO 220220Z AUTO 25008KT 9999 NCD 09/09 Q1034 WSW (250°) 9.2mph 9°C 9°C
22/01/20 01:50 EGPO 220150Z AUTO 25009KT 9999 BKN004/// BKN042/// 10/09 Q1034 RERA WSW (250°) 10.4mph 10°C 9°C
22/01/20 01:20 EGPO 220120Z AUTO 24008KT 8000 -RA OVC004/// 10/09 Q1034 -RA WSW (240°) 9.2mph 10°C 9°C
22/01/20 00:50 EGPO 220050Z AUTO 24007KT 9999 OVC004/// 10/09 Q1034 WSW (240°) 8.1mph 10°C 9°C
22/01/20 00:20 EGPO 220020Z AUTO 25008KT 9999 OVC003/// 10/09 Q1034 WSW (250°) 9.2mph 10°C 9°C
21/01/20 23:50 EGPO 212350Z AUTO 23008KT 9999 -RA BKN003/// OVC045/// 10/09 Q1034 -RA SW (230°) 9.2mph 10°C 9°C
21/01/20 23:20 EGPO 212320Z AUTO 22007KT 9999 BKN005/// OVC045/// 10/09 Q1034 SW (220°) 8.1mph 10°C 9°C
21/01/20 22:50 EGPO 212250Z AUTO 23006KT 9999 BKN006/// OVC046/// 10/09 Q1034 SW (230°) 6.9mph 10°C 9°C
21/01/20 22:20 EGPO 212220Z AUTO 24006KT 9999 -RA OVC006/// 10/09 Q1034 -RA WSW (240°) 6.9mph 10°C 9°C
21/01/20 21:50 EGPO 212150Z AUTO 23006KT 9999 OVC005/// 10/09 Q1034 SW (230°) 6.9mph 10°C 9°C
21/01/20 21:20 EGPO 212120Z AUTO 24007KT 6000 -RA BKN004/// OVC030/// 10/09 Q1034 RERA -RA WSW (240°) 8.1mph 10°C 9°C
21/01/20 20:50 EGPO 212050Z AUTO 25006KT 9000 -RA BKN005/// OVC010/// 09/09 Q1034 -RA WSW (250°) 6.9mph 9°C 9°C
21/01/20 20:20 EGPO 212020Z AUTO 24005KT 8000 -RA BKN005/// BKN009/// OVC036/// 09/09 Q1034 -RA WSW (240°) 5.8mph 9°C 9°C
21/01/20 19:20 EGPO 211920Z 19003KT 6000 -DZ SCT004 SCT014 BKN028 08/08 Q1034 -DZ S (190°) 3.5mph 8°C 8°C
21/01/20 18:50 EGPO 211850Z 19004KT 6000 -DZ SCT004 SCT014 BKN028 08/08 Q1034 -DZ S (190°) 4.6mph 8°C 8°C
21/01/20 18:20 EGPO 211820Z 19003KT 5000 -DZ SCT004 SCT008 BKN018 08/08 Q1034 -DZ S (190°) 3.5mph 8°C 8°C
21/01/20 17:50 EGPO 211750Z 00000KT 7000 -RADZ SCT006 BKN012 08/07 Q1034 -RA -DZ N (0°) 8°C 7°C
21/01/20 17:20 EGPO 211720Z 19002KT 9999 FEW006 BKN014 08/07 Q1034 S (190°) 2.3mph 8°C 7°C
21/01/20 16:50 EGPO 211650Z VRB02KT 9999 FEW006 BKN014 08/07 Q1034 N (0°) 2.3mph 8°C 7°C
21/01/20 15:50 EGPO 211550Z 25003KT 9999 FEW007 BKN011 08/07 Q1034 WSW (250°) 3.5mph 8°C 7°C
21/01/20 15:20 EGPO 211520Z 24005KT 9999 FEW007 BKN011 09/07 Q1034 WSW (240°) 5.8mph 9°C 7°C
21/01/20 14:50 EGPO 211450Z 25005KT 9999 FEW007 BKN011 09/07 Q1034 WSW (250°) 5.8mph 9°C 7°C
21/01/20 13:50 EGPO 211350Z VRB03KT 9999 FEW007 BKN011 09/07 Q1035 N (0°) 3.5mph 9°C 7°C
21/01/20 13:20 EGPO 211320Z 22005KT 190V290 9999 FEW007 BKN011 09/07 Q1035 SW (220°) 5.8mph 9°C 7°C
21/01/20 12:50 EGPO 211250Z 16004KT 9999 FEW007 BKN011 08/07 Q1035 SSE (160°) 4.6mph 8°C 7°C
21/01/20 11:50 EGPO 211150Z 19004KT 9999 FEW008 BKN015 08/07 Q1036 S (190°) 4.6mph 8°C 7°C
21/01/20 11:20 EGPO 211120Z 21004KT 9999 FEW007 BKN017 08/07 Q1036 SSW (210°) 4.6mph 8°C 7°C
21/01/20 10:20 EGPO 211020Z 25003KT 9999 FEW007 BKN016 07/06 Q1036 WSW (250°) 3.5mph 7°C 6°C
21/01/20 09:50 EGPO 210950Z 22006KT 9999 FEW006 BKN013 07/06 Q1035 SW (220°) 6.9mph 7°C 6°C
21/01/20 09:20 EGPO 210920Z 23004KT 150V260 9999 VCSH FEW004 SCT009 BKN015 06/06 Q1035 VCSH SW (230°) 4.6mph 6°C 6°C
21/01/20 08:50 EGPO 210850Z 22004KT 160V280 9999 -DZ FEW004 SCT009 BKN014 06/05 Q1035 -DZ SW (220°) 4.6mph 6°C 5°C
21/01/20 08:20 EGPO 210820Z 26005KT 9999 SCT011 BKN021 05/05 Q1035 W (260°) 5.8mph 5°C 5°C
21/01/20 07:50 EGPO 210750Z 25004KT 230V300 9999 BKN019 04/04 Q1035 WSW (250°) 4.6mph 4°C 4°C
21/01/20 07:20 EGPO 210720Z 25005KT 9999 SCT021 03/03 Q1035 WSW (250°) 5.8mph 3°C 3°C
21/01/20 06:50 EGPO 210650Z 23004KT 9999 MIFG NSC 03/03 Q1035 MIFG SW (230°) 4.6mph 3°C 3°C
21/01/20 05:50 EGPO 210550Z AUTO 22002KT 2200 BR NCD 04/03 Q1035 BR SW (220°) 2.3mph 4°C 3°C
21/01/20 05:20 EGPO 210520Z AUTO 28004KT 9999 SCT016/// 06/05 Q1035 W (280°) 4.6mph 6°C 5°C
21/01/20 04:20 EGPO 210420Z AUTO 29003KT 9999 FEW008/// SCT011/// BKN016/// 07/06 Q1035 WNW (290°) 3.5mph 7°C 6°C
21/01/20 03:50 EGPO 210350Z 31005KT 9999 SCT010 BKN016 07/07 Q1035 NW (310°) 5.8mph 7°C 7°C
21/01/20 03:20 EGPO 210320Z 30007KT 9999 SCT004 SCT010 BKN016 07/07 Q1035 WNW (300°) 8.1mph 7°C 7°C